sensor_id;sensor_type;location;lat;lon;timestamp;temperature;humidity
59999;DHT22;45859;51.378;6.736;2023-06-26T00:02:16;22.90;99.90
59999;DHT22;45859;51.378;6.736;2023-06-26T00:04:43;22.90;99.90
59999;DHT22;45859;51.378;6.736;2023-06-26T00:07:08;22.80;99.90
59999;DHT22;45859;51.378;6.736;2023-06-26T00:09:34;22.80;99.90
59999;DHT22;45859;51.378;6.736;2023-06-26T00:12:00;22.80;99.90
59999;DHT22;45859;51.378;6.736;2023-06-26T00:14:25;22.70;99.90
59999;DHT22;45859;51.378;6.736;2023-06-26T00:16:51;22.70;99.90
59999;DHT22;45859;51.378;6.736;2023-06-26T00:19:17;22.70;99.90
59999;DHT22;45859;51.378;6.736;2023-06-26T00:21:42;22.60;99.90
59999;DHT22;45859;51.378;6.736;2023-06-26T00:24:14;22.60;99.90
59999;DHT22;45859;51.378;6.736;2023-06-26T00:26:40;22.60;99.90
59999;DHT22;45859;51.378;6.736;2023-06-26T00:29:06;22.50;99.90
59999;DHT22;45859;51.378;6.736;2023-06-26T00:31:31;22.50;99.90
59999;DHT22;45859;51.378;6.736;2023-06-26T00:33:57;22.40;99.90
59999;DHT22;45859;51.378;6.736;2023-06-26T00:36:22;22.40;99.90
59999;DHT22;45859;51.378;6.736;2023-06-26T00:38:49;22.40;99.90
59999;DHT22;45859;51.378;6.736;2023-06-26T00:41:15;22.40;99.90
59999;DHT22;45859;51.378;6.736;2023-06-26T00:43:41;22.40;99.90
59999;DHT22;45859;51.378;6.736;2023-06-26T00:46:10;22.30;99.90
59999;DHT22;45859;51.378;6.736;2023-06-26T00:48:37;22.30;99.90
59999;DHT22;45859;51.378;6.736;2023-06-26T00:51:03;22.30;99.90
59999;DHT22;45859;51.378;6.736;2023-06-26T00:53:29;22.20;99.90
59999;DHT22;45859;51.378;6.736;2023-06-26T00:55:55;22.20;99.90
59999;DHT22;45859;51.378;6.736;2023-06-26T00:58:24;22.20;99.90
59999;DHT22;45859;51.378;6.736;2023-06-26T01:00:54;22.20;99.90
59999;DHT22;45859;51.378;6.736;2023-06-26T01:03:23;22.10;99.90
59999;DHT22;45859;51.378;6.736;2023-06-26T01:05:52;22.00;99.90
59999;DHT22;45859;51.378;6.736;2023-06-26T01:08:18;22.00;99.90
59999;DHT22;45859;51.378;6.736;2023-06-26T01:10:44;22.00;99.90
59999;DHT22;45859;51.378;6.736;2023-06-26T01:13:10;21.90;99.90
59999;DHT22;45859;51.378;6.736;2023-06-26T01:15:36;21.90;99.90
59999;DHT22;45859;51.378;6.736;2023-06-26T01:18:02;21.90;99.90
59999;DHT22;45859;51.378;6.736;2023-06-26T01:20:31;21.90;99.90
59999;DHT22;45859;51.378;6.736;2023-06-26T01:23:14;21.90;99.90
59999;DHT22;45859;51.378;6.736;2023-06-26T01:25:54;21.80;99.90
59999;DHT22;45859;51.378;6.736;2023-06-26T01:28:22;21.80;99.90
59999;DHT22;45859;51.378;6.736;2023-06-26T01:30:49;21.70;99.90
59999;DHT22;45859;51.378;6.736;2023-06-26T01:33:16;21.80;99.90
59999;DHT22;45859;51.378;6.736;2023-06-26T01:35:42;21.70;99.90
59999;DHT22;45859;51.378;6.736;2023-06-26T01:38:21;21.70;99.90
59999;DHT22;45859;51.378;6.736;2023-06-26T01:40:48;21.60;99.90
59999;DHT22;45859;51.378;6.736;2023-06-26T01:45:54;21.60;99.90
59999;DHT22;45859;51.378;6.736;2023-06-26T01:48:25;21.60;99.90
59999;DHT22;45859;51.378;6.736;2023-06-26T01:50:53;21.60;99.90
59999;DHT22;45859;51.378;6.736;2023-06-26T01:53:23;21.50;99.90
59999;DHT22;45859;51.378;6.736;2023-06-26T01:55:55;21.50;99.90
59999;DHT22;45859;51.378;6.736;2023-06-26T01:58:24;21.50;99.90
59999;DHT22;45859;51.378;6.736;2023-06-26T02:00:50;21.40;99.90
59999;DHT22;45859;51.378;6.736;2023-06-26T02:03:16;21.40;99.90
59999;DHT22;45859;51.378;6.736;2023-06-26T02:05:41;21.40;99.90
59999;DHT22;45859;51.378;6.736;2023-06-26T02:08:08;21.40;99.90
59999;DHT22;45859;51.378;6.736;2023-06-26T02:10:34;21.40;99.90
59999;DHT22;45859;51.378;6.736;2023-06-26T02:13:00;21.30;99.90
59999;DHT22;45859;51.378;6.736;2023-06-26T02:15:26;21.30;99.90
59999;DHT22;45859;51.378;6.736;2023-06-26T02:17:52;21.20;99.90
59999;DHT22;45859;51.378;6.736;2023-06-26T02:20:17;21.20;99.90
59999;DHT22;45859;51.378;6.736;2023-06-26T02:22:43;21.20;99.90
59999;DHT22;45859;51.378;6.736;2023-06-26T02:25:09;21.20;99.90
59999;DHT22;45859;51.378;6.736;2023-06-26T02:27:35;21.20;99.90
59999;DHT22;45859;51.378;6.736;2023-06-26T02:30:01;21.20;99.90
59999;DHT22;45859;51.378;6.736;2023-06-26T02:32:27;21.20;99.90
59999;DHT22;45859;51.378;6.736;2023-06-26T02:34:53;21.20;99.90
59999;DHT22;45859;51.378;6.736;2023-06-26T02:37:19;21.20;99.90
59999;DHT22;45859;51.378;6.736;2023-06-26T02:39:45;21.20;99.90
59999;DHT22;45859;51.378;6.736;2023-06-26T02:42:11;21.10;99.90
59999;DHT22;45859;51.378;6.736;2023-06-26T02:44:36;21.20;99.90
59999;DHT22;45859;51.378;6.736;2023-06-26T02:47:02;21.20;99.90
59999;DHT22;45859;51.378;6.736;2023-06-26T02:49:28;21.30;99.90
59999;DHT22;45859;51.378;6.736;2023-06-26T02:51:54;21.20;99.90
59999;DHT22;45859;51.378;6.736;2023-06-26T02:54:20;21.30;99.90
59999;DHT22;45859;51.378;6.736;2023-06-26T02:56:45;21.30;99.90
59999;DHT22;45859;51.378;6.736;2023-06-26T02:59:11;21.30;99.90
59999;DHT22;45859;51.378;6.736;2023-06-26T03:01:37;21.30;99.90
59999;DHT22;45859;51.378;6.736;2023-06-26T03:04:02;21.30;99.90
59999;DHT22;45859;51.378;6.736;2023-06-26T03:06:28;21.30;99.90
59999;DHT22;45859;51.378;6.736;2023-06-26T03:08:54;21.40;99.90
59999;DHT22;45859;51.378;6.736;2023-06-26T03:11:20;21.40;99.90
59999;DHT22;45859;51.378;6.736;2023-06-26T03:13:45;21.40;99.90
59999;DHT22;45859;51.378;6.736;2023-06-26T03:16:11;21.50;99.90
59999;DHT22;45859;51.378;6.736;2023-06-26T03:18:37;21.60;99.90
59999;DHT22;45859;51.378;6.736;2023-06-26T03:21:02;21.60;99.90
59999;DHT22;45859;51.378;6.736;2023-06-26T03:23:28;21.60;99.90
59999;DHT22;45859;51.378;6.736;2023-06-26T03:25:54;21.50;99.90
59999;DHT22;45859;51.378;6.736;2023-06-26T03:28:19;21.50;99.90
59999;DHT22;45859;51.378;6.736;2023-06-26T03:30:45;21.50;99.90
59999;DHT22;45859;51.378;6.736;2023-06-26T03:33:11;21.50;99.90
59999;DHT22;45859;51.378;6.736;2023-06-26T03:35:37;21.50;99.90
59999;DHT22;45859;51.378;6.736;2023-06-26T03:38:03;21.40;99.90
59999;DHT22;45859;51.378;6.736;2023-06-26T03:40:29;21.50;99.90
59999;DHT22;45859;51.378;6.736;2023-06-26T03:42:55;21.50;99.90
59999;DHT22;45859;51.378;6.736;2023-06-26T03:45:21;21.50;99.90
59999;DHT22;45859;51.378;6.736;2023-06-26T03:47:46;21.50;99.90
59999;DHT22;45859;51.378;6.736;2023-06-26T03:50:15;21.50;99.90
59999;DHT22;45859;51.378;6.736;2023-06-26T03:52:40;21.50;99.90
59999;DHT22;45859;51.378;6.736;2023-06-26T03:55:06;21.50;99.90
59999;DHT22;45859;51.378;6.736;2023-06-26T03:57:32;21.50;99.90
59999;DHT22;45859;51.378;6.736;2023-06-26T03:59:57;21.50;99.90
59999;DHT22;45859;51.378;6.736;2023-06-26T04:02:23;21.60;99.90
59999;DHT22;45859;51.378;6.736;2023-06-26T04:04:48;21.60;99.90
59999;DHT22;45859;51.378;6.736;2023-06-26T04:07:14;21.70;99.90
59999;DHT22;45859;51.378;6.736;2023-06-26T04:09:40;21.70;99.90
59999;DHT22;45859;51.378;6.736;2023-06-26T04:12:06;21.70;99.90
59999;DHT22;45859;51.378;6.736;2023-06-26T04:14:32;21.80;99.90
59999;DHT22;45859;51.378;6.736;2023-06-26T04:16:57;21.80;99.90
59999;DHT22;45859;51.378;6.736;2023-06-26T04:19:23;21.90;99.90
59999;DHT22;45859;51.378;6.736;2023-06-26T04:21:49;22.00;99.90
59999;DHT22;45859;51.378;6.736;2023-06-26T04:24:14;22.00;99.90
59999;DHT22;45859;51.378;6.736;2023-06-26T04:26:40;22.00;99.90
59999;DHT22;45859;51.378;6.736;2023-06-26T04:29:10;22.10;99.90
59999;DHT22;45859;51.378;6.736;2023-06-26T04:31:36;22.20;99.90
59999;DHT22;45859;51.378;6.736;2023-06-26T04:34:02;22.20;99.90
59999;DHT22;45859;51.378;6.736;2023-06-26T04:36:27;22.20;99.90
59999;DHT22;45859;51.378;6.736;2023-06-26T04:38:54;22.30;99.90
59999;DHT22;45859;51.378;6.736;2023-06-26T04:41:21;22.30;99.90
59999;DHT22;45859;51.378;6.736;2023-06-26T04:43:46;22.20;99.90
59999;DHT22;45859;51.378;6.736;2023-06-26T04:46:12;22.20;99.90
59999;DHT22;45859;51.378;6.736;2023-06-26T04:48:38;22.30;99.90
59999;DHT22;45859;51.378;6.736;2023-06-26T04:51:03;22.30;99.90
59999;DHT22;45859;51.378;6.736;2023-06-26T04:53:29;22.40;99.90
59999;DHT22;45859;51.378;6.736;2023-06-26T04:55:55;22.50;99.90
59999;DHT22;45859;51.378;6.736;2023-06-26T04:58:21;22.50;99.90
59999;DHT22;45859;51.378;6.736;2023-06-26T05:00:47;22.40;99.90
59999;DHT22;45859;51.378;6.736;2023-06-26T05:03:14;22.50;99.90
59999;DHT22;45859;51.378;6.736;2023-06-26T05:05:42;22.40;99.90
59999;DHT22;45859;51.378;6.736;2023-06-26T05:08:20;22.40;99.90
59999;DHT22;45859;51.378;6.736;2023-06-26T05:10:46;22.40;99.90
59999;DHT22;45859;51.378;6.736;2023-06-26T05:13:12;22.30;99.90
59999;DHT22;45859;51.378;6.736;2023-06-26T05:15:41;22.20;99.90
59999;DHT22;45859;51.378;6.736;2023-06-26T05:18:08;22.20;99.90
59999;DHT22;45859;51.378;6.736;2023-06-26T05:20:35;22.30;99.90
59999;DHT22;45859;51.378;6.736;2023-06-26T05:23:02;22.30;99.90
59999;DHT22;45859;51.378;6.736;2023-06-26T05:25:29;22.50;99.90
59999;DHT22;45859;51.378;6.736;2023-06-26T05:27:57;22.50;99.90
59999;DHT22;45859;51.378;6.736;2023-06-26T05:30:24;22.90;99.90
59999;DHT22;45859;51.378;6.736;2023-06-26T05:32:51;22.90;99.90
59999;DHT22;45859;51.378;6.736;2023-06-26T05:35:19;23.00;99.90
59999;DHT22;45859;51.378;6.736;2023-06-26T05:37:50;23.00;99.90
59999;DHT22;45859;51.378;6.736;2023-06-26T05:40:17;23.10;99.90
59999;DHT22;45859;51.378;6.736;2023-06-26T05:42:44;23.30;99.90
59999;DHT22;45859;51.378;6.736;2023-06-26T05:45:10;23.40;99.90
59999;DHT22;45859;51.378;6.736;2023-06-26T05:47:36;23.40;99.90
59999;DHT22;45859;51.378;6.736;2023-06-26T05:50:03;23.10;99.90
59999;DHT22;45859;51.378;6.736;2023-06-26T05:52:29;23.00;99.90
59999;DHT22;45859;51.378;6.736;2023-06-26T05:54:56;23.00;99.90
59999;DHT22;45859;51.378;6.736;2023-06-26T05:57:28;22.70;99.90
59999;DHT22;45859;51.378;6.736;2023-06-26T05:59:55;22.70;99.90
59999;DHT22;45859;51.378;6.736;2023-06-26T06:02:22;23.10;99.90
59999;DHT22;45859;51.378;6.736;2023-06-26T06:04:48;24.00;99.90
59999;DHT22;45859;51.378;6.736;2023-06-26T06:07:13;25.20;99.90
59999;DHT22;45859;51.378;6.736;2023-06-26T06:09:39;25.50;99.90
59999;DHT22;45859;51.378;6.736;2023-06-26T06:12:06;24.90;99.90
59999;DHT22;45859;51.378;6.736;2023-06-26T06:14:36;24.20;99.90
59999;DHT22;45859;51.378;6.736;2023-06-26T06:17:02;23.30;99.90
59999;DHT22;45859;51.378;6.736;2023-06-26T06:19:27;23.10;99.90
59999;DHT22;45859;51.378;6.736;2023-06-26T06:21:53;22.90;99.90
59999;DHT22;45859;51.378;6.736;2023-06-26T06:24:20;23.30;99.90
59999;DHT22;45859;51.378;6.736;2023-06-26T06:26:46;23.50;99.90
59999;DHT22;45859;51.378;6.736;2023-06-26T06:29:11;24.20;99.90
59999;DHT22;45859;51.378;6.736;2023-06-26T06:31:37;24.90;99.90
59999;DHT22;45859;51.378;6.736;2023-06-26T06:34:03;26.00;99.90
59999;DHT22;45859;51.378;6.736;2023-06-26T06:36:28;27.10;99.90
59999;DHT22;45859;51.378;6.736;2023-06-26T06:38:54;27.90;99.90
59999;DHT22;45859;51.378;6.736;2023-06-26T06:41:20;27.80;99.90
59999;DHT22;45859;51.378;6.736;2023-06-26T06:43:46;27.80;99.90
59999;DHT22;45859;51.378;6.736;2023-06-26T06:46:12;28.40;99.90
59999;DHT22;45859;51.378;6.736;2023-06-26T06:48:38;28.60;99.90
59999;DHT22;45859;51.378;6.736;2023-06-26T06:51:03;27.70;99.90
59999;DHT22;45859;51.378;6.736;2023-06-26T06:53:31;27.30;99.90
59999;DHT22;45859;51.378;6.736;2023-06-26T06:55:57;26.90;99.90
59999;DHT22;45859;51.378;6.736;2023-06-26T06:58:22;26.60;99.90
59999;DHT22;45859;51.378;6.736;2023-06-26T07:00:49;25.80;99.90
59999;DHT22;45859;51.378;6.736;2023-06-26T07:03:14;25.20;99.90
59999;DHT22;45859;51.378;6.736;2023-06-26T07:05:43;24.90;99.90
59999;DHT22;45859;51.378;6.736;2023-06-26T07:08:09;24.70;99.90
59999;DHT22;45859;51.378;6.736;2023-06-26T07:10:35;24.60;99.90
59999;DHT22;45859;51.378;6.736;2023-06-26T07:13:01;24.40;99.90
59999;DHT22;45859;51.378;6.736;2023-06-26T07:15:27;24.40;99.90
59999;DHT22;45859;51.378;6.736;2023-06-26T07:17:53;25.50;99.90
59999;DHT22;45859;51.378;6.736;2023-06-26T07:20:18;26.40;99.90
59999;DHT22;45859;51.378;6.736;2023-06-26T07:22:44;27.20;99.90
59999;DHT22;45859;51.378;6.736;2023-06-26T07:25:11;27.90;99.90
59999;DHT22;45859;51.378;6.736;2023-06-26T07:27:40;28.60;99.90
59999;DHT22;45859;51.378;6.736;2023-06-26T07:30:07;29.80;99.90
59999;DHT22;45859;51.378;6.736;2023-06-26T07:32:37;30.60;99.90
59999;DHT22;45859;51.378;6.736;2023-06-26T07:35:03;31.00;99.90
59999;DHT22;45859;51.378;6.736;2023-06-26T07:37:29;31.90;99.90
59999;DHT22;45859;51.378;6.736;2023-06-26T07:39:55;32.10;99.90
59999;DHT22;45859;51.378;6.736;2023-06-26T07:42:21;31.20;99.90
59999;DHT22;45859;51.378;6.736;2023-06-26T07:44:46;30.40;99.90
59999;DHT22;45859;51.378;6.736;2023-06-26T07:47:12;29.10;99.90
59999;DHT22;45859;51.378;6.736;2023-06-26T07:49:39;28.00;99.90
59999;DHT22;45859;51.378;6.736;2023-06-26T07:52:05;27.60;99.90
59999;DHT22;45859;51.378;6.736;2023-06-26T07:54:31;27.30;99.90
59999;DHT22;45859;51.378;6.736;2023-06-26T07:57:01;27.30;99.90
59999;DHT22;45859;51.378;6.736;2023-06-26T07:59:28;27.60;99.90
59999;DHT22;45859;51.378;6.736;2023-06-26T08:01:54;28.00;99.90
59999;DHT22;45859;51.378;6.736;2023-06-26T08:04:22;28.70;99.90
59999;DHT22;45859;51.378;6.736;2023-06-26T08:06:50;28.60;99.90
59999;DHT22;45859;51.378;6.736;2023-06-26T08:09:17;28.30;99.90
59999;DHT22;45859;51.378;6.736;2023-06-26T08:11:43;27.40;99.90
59999;DHT22;45859;51.378;6.736;2023-06-26T08:14:09;26.80;99.90
59999;DHT22;45859;51.378;6.736;2023-06-26T08:16:37;26.50;99.90
59999;DHT22;45859;51.378;6.736;2023-06-26T08:19:03;26.10;99.90
59999;DHT22;45859;51.378;6.736;2023-06-26T08:21:29;26.00;99.90
59999;DHT22;45859;51.378;6.736;2023-06-26T08:23:55;25.80;99.90
59999;DHT22;45859;51.378;6.736;2023-06-26T08:26:20;25.60;99.90
59999;DHT22;45859;51.378;6.736;2023-06-26T08:28:46;25.80;99.90
59999;DHT22;45859;51.378;6.736;2023-06-26T08:31:12;25.90;99.90
59999;DHT22;45859;51.378;6.736;2023-06-26T08:33:38;25.90;99.90
59999;DHT22;45859;51.378;6.736;2023-06-26T08:36:04;26.30;99.90
59999;DHT22;45859;51.378;6.736;2023-06-26T08:38:29;26.90;99.90
59999;DHT22;45859;51.378;6.736;2023-06-26T08:40:55;26.90;99.90
59999;DHT22;45859;51.378;6.736;2023-06-26T08:43:21;26.40;99.90
59999;DHT22;45859;51.378;6.736;2023-06-26T08:45:48;26.10;99.90
59999;DHT22;45859;51.378;6.736;2023-06-26T08:48:17;26.70;99.90
59999;DHT22;45859;51.378;6.736;2023-06-26T08:50:44;26.90;99.90
59999;DHT22;45859;51.378;6.736;2023-06-26T08:55:41;27.20;99.90
59999;DHT22;45859;51.378;6.736;2023-06-26T08:58:07;28.50;99.90
59999;DHT22;45859;51.378;6.736;2023-06-26T09:00:33;28.70;99.90
59999;DHT22;45859;51.378;6.736;2023-06-26T09:02:59;27.60;99.90
59999;DHT22;45859;51.378;6.736;2023-06-26T09:05:26;28.20;99.90
59999;DHT22;45859;51.378;6.736;2023-06-26T09:07:57;28.90;99.90
59999;DHT22;45859;51.378;6.736;2023-06-26T09:10:24;29.10;99.90
59999;DHT22;45859;51.378;6.736;2023-06-26T09:12:50;29.10;99.90
59999;DHT22;45859;51.378;6.736;2023-06-26T09:15:19;29.90;99.90
59999;DHT22;45859;51.378;6.736;2023-06-26T09:17:45;30.70;99.90
59999;DHT22;45859;51.378;6.736;2023-06-26T09:20:12;30.90;99.90
59999;DHT22;45859;51.378;6.736;2023-06-26T09:22:43;30.00;99.90
59999;DHT22;45859;51.378;6.736;2023-06-26T09:25:12;29.60;99.90
59999;DHT22;45859;51.378;6.736;2023-06-26T09:27:38;30.00;99.90
59999;DHT22;45859;51.378;6.736;2023-06-26T09:30:05;30.70;99.90
59999;DHT22;45859;51.378;6.736;2023-06-26T09:32:34;31.10;99.90
59999;DHT22;45859;51.378;6.736;2023-06-26T09:35:02;31.40;99.90
59999;DHT22;45859;51.378;6.736;2023-06-26T09:37:28;31.50;99.90
59999;DHT22;45859;51.378;6.736;2023-06-26T09:39:54;31.80;99.90
59999;DHT22;45859;51.378;6.736;2023-06-26T09:42:20;31.50;99.90
59999;DHT22;45859;51.378;6.736;2023-06-26T09:44:47;31.00;99.90
59999;DHT22;45859;51.378;6.736;2023-06-26T09:47:18;30.50;99.90
59999;DHT22;45859;51.378;6.736;2023-06-26T09:49:43;30.40;99.90
59999;DHT22;45859;51.378;6.736;2023-06-26T09:52:10;31.00;99.90
59999;DHT22;45859;51.378;6.736;2023-06-26T09:54:36;31.60;99.90
59999;DHT22;45859;51.378;6.736;2023-06-26T09:57:16;31.50;99.90
59999;DHT22;45859;51.378;6.736;2023-06-26T09:59:42;31.30;99.90
59999;DHT22;45859;51.378;6.736;2023-06-26T10:02:08;30.30;99.90
59999;DHT22;45859;51.378;6.736;2023-06-26T10:04:36;29.60;99.90
59999;DHT22;45859;51.378;6.736;2023-06-26T10:07:05;29.50;99.90
59999;DHT22;45859;51.378;6.736;2023-06-26T10:09:32;29.10;99.90
59999;DHT22;45859;51.378;6.736;2023-06-26T10:12:02;29.40;99.90
59999;DHT22;45859;51.378;6.736;2023-06-26T10:14:34;29.00;99.90
59999;DHT22;45859;51.378;6.736;2023-06-26T10:17:03;28.50;99.90
59999;DHT22;45859;51.378;6.736;2023-06-26T10:19:30;27.90;99.90
59999;DHT22;45859;51.378;6.736;2023-06-26T10:21:58;27.40;99.90
59999;DHT22;45859;51.378;6.736;2023-06-26T10:24:26;26.90;99.90
59999;DHT22;45859;51.378;6.736;2023-06-26T10:26:59;26.60;99.90
59999;DHT22;45859;51.378;6.736;2023-06-26T10:29:25;26.30;99.90
59999;DHT22;45859;51.378;6.736;2023-06-26T10:31:55;26.40;99.90
59999;DHT22;45859;51.378;6.736;2023-06-26T10:34:23;26.50;99.90
59999;DHT22;45859;51.378;6.736;2023-06-26T10:37:02;26.80;99.90
59999;DHT22;45859;51.378;6.736;2023-06-26T10:42:11;27.30;99.90
59999;DHT22;45859;51.378;6.736;2023-06-26T10:44:44;27.00;99.90
59999;DHT22;45859;51.378;6.736;2023-06-26T10:47:12;26.60;99.90
59999;DHT22;45859;51.378;6.736;2023-06-26T10:49:38;26.70;99.90
59999;DHT22;45859;51.378;6.736;2023-06-26T10:52:07;26.90;99.90
59999;DHT22;45859;51.378;6.736;2023-06-26T10:54:34;26.80;99.90
59999;DHT22;45859;51.378;6.736;2023-06-26T10:57:02;26.60;99.90
59999;DHT22;45859;51.378;6.736;2023-06-26T10:59:29;26.30;99.90
59999;DHT22;45859;51.378;6.736;2023-06-26T11:01:57;26.20;99.90
59999;DHT22;45859;51.378;6.736;2023-06-26T11:04:55;26.20;99.90
59999;DHT22;45859;51.378;6.736;2023-06-26T11:07:26;26.50;99.90
59999;DHT22;45859;51.378;6.736;2023-06-26T11:10:10;26.70;99.90
59999;DHT22;45859;51.378;6.736;2023-06-26T11:12:43;26.60;99.90
59999;DHT22;45859;51.378;6.736;2023-06-26T11:15:14;26.30;99.90
59999;DHT22;45859;51.378;6.736;2023-06-26T11:17:40;26.00;99.90
59999;DHT22;45859;51.378;6.736;2023-06-26T11:20:08;26.00;99.90
59999;DHT22;45859;51.378;6.736;2023-06-26T11:22:35;25.90;99.90
59999;DHT22;45859;51.378;6.736;2023-06-26T11:25:02;25.70;99.90
59999;DHT22;45859;51.378;6.736;2023-06-26T11:27:39;25.90;99.90
59999;DHT22;45859;51.378;6.736;2023-06-26T11:30:06;26.10;99.90
59999;DHT22;45859;51.378;6.736;2023-06-26T11:32:32;26.40;99.90
59999;DHT22;45859;51.378;6.736;2023-06-26T11:35:00;26.80;99.90
59999;DHT22;45859;51.378;6.736;2023-06-26T11:37:26;26.70;99.90
59999;DHT22;45859;51.378;6.736;2023-06-26T11:39:52;26.60;99.90
59999;DHT22;45859;51.378;6.736;2023-06-26T11:42:20;26.50;99.90
59999;DHT22;45859;51.378;6.736;2023-06-26T11:44:46;26.20;99.90
59999;DHT22;45859;51.378;6.736;2023-06-26T11:47:13;26.30;99.90
59999;DHT22;45859;51.378;6.736;2023-06-26T11:49:42;26.40;99.90
59999;DHT22;45859;51.378;6.736;2023-06-26T11:52:08;26.30;99.90
59999;DHT22;45859;51.378;6.736;2023-06-26T11:54:34;26.50;99.90
59999;DHT22;45859;51.378;6.736;2023-06-26T11:56:59;26.60;99.90
59999;DHT22;45859;51.378;6.736;2023-06-26T11:59:39;26.70;99.90
59999;DHT22;45859;51.378;6.736;2023-06-26T12:02:09;26.60;99.90
59999;DHT22;45859;51.378;6.736;2023-06-26T12:04:37;26.60;99.90
59999;DHT22;45859;51.378;6.736;2023-06-26T12:07:05;26.50;99.90
59999;DHT22;45859;51.378;6.736;2023-06-26T12:09:33;26.40;99.90
59999;DHT22;45859;51.378;6.736;2023-06-26T12:12:00;26.20;99.90
59999;DHT22;45859;51.378;6.736;2023-06-26T12:14:26;26.20;99.90
59999;DHT22;45859;51.378;6.736;2023-06-26T12:16:54;26.00;99.90
59999;DHT22;45859;51.378;6.736;2023-06-26T12:19:25;26.00;99.90
59999;DHT22;45859;51.378;6.736;2023-06-26T12:21:53;26.30;99.90
59999;DHT22;45859;51.378;6.736;2023-06-26T12:24:23;26.40;99.90
59999;DHT22;45859;51.378;6.736;2023-06-26T12:26:54;26.60;99.90
59999;DHT22;45859;51.378;6.736;2023-06-26T12:29:29;26.60;99.90
59999;DHT22;45859;51.378;6.736;2023-06-26T12:31:56;26.60;99.90
59999;DHT22;45859;51.378;6.736;2023-06-26T12:34:31;26.60;99.90
59999;DHT22;45859;51.378;6.736;2023-06-26T12:37:06;26.70;99.90
59999;DHT22;45859;51.378;6.736;2023-06-26T12:44:48;26.50;99.90
59999;DHT22;45859;51.378;6.736;2023-06-26T12:47:19;26.20;99.90
59999;DHT22;45859;51.378;6.736;2023-06-26T12:49:49;26.00;99.90
59999;DHT22;45859;51.378;6.736;2023-06-26T12:52:16;25.80;99.90
59999;DHT22;45859;51.378;6.736;2023-06-26T12:54:43;25.80;99.90
59999;DHT22;45859;51.378;6.736;2023-06-26T12:57:09;25.80;99.90
59999;DHT22;45859;51.378;6.736;2023-06-26T12:59:38;25.90;99.90
59999;DHT22;45859;51.378;6.736;2023-06-26T13:02:04;25.80;99.90
59999;DHT22;45859;51.378;6.736;2023-06-26T13:04:30;25.70;99.90
59999;DHT22;45859;51.378;6.736;2023-06-26T13:06:56;25.50;99.90
59999;DHT22;45859;51.378;6.736;2023-06-26T13:09:23;25.60;99.90
59999;DHT22;45859;51.378;6.736;2023-06-26T13:11:53;25.60;99.90
59999;DHT22;45859;51.378;6.736;2023-06-26T13:14:19;25.50;99.90
59999;DHT22;45859;51.378;6.736;2023-06-26T13:16:45;25.40;99.90
59999;DHT22;45859;51.378;6.736;2023-06-26T13:19:10;25.40;99.90
59999;DHT22;45859;51.378;6.736;2023-06-26T13:21:36;25.70;99.90
59999;DHT22;45859;51.378;6.736;2023-06-26T13:24:03;25.80;99.90
59999;DHT22;45859;51.378;6.736;2023-06-26T13:26:30;25.80;99.90
59999;DHT22;45859;51.378;6.736;2023-06-26T13:28:56;25.80;99.90
59999;DHT22;45859;51.378;6.736;2023-06-26T13:31:22;25.80;99.90
59999;DHT22;45859;51.378;6.736;2023-06-26T13:33:47;25.80;99.90
59999;DHT22;45859;51.378;6.736;2023-06-26T13:36:18;25.90;99.90
59999;DHT22;45859;51.378;6.736;2023-06-26T13:38:44;25.90;99.90
59999;DHT22;45859;51.378;6.736;2023-06-26T13:41:10;25.80;99.90
59999;DHT22;45859;51.378;6.736;2023-06-26T13:43:36;25.80;99.90
59999;DHT22;45859;51.378;6.736;2023-06-26T13:46:02;25.80;99.90
59999;DHT22;45859;51.378;6.736;2023-06-26T13:48:28;25.60;99.90
59999;DHT22;45859;51.378;6.736;2023-06-26T13:50:54;25.80;99.90
59999;DHT22;45859;51.378;6.736;2023-06-26T13:53:20;25.70;99.90
59999;DHT22;45859;51.378;6.736;2023-06-26T13:55:46;25.40;99.90
59999;DHT22;45859;51.378;6.736;2023-06-26T13:58:11;25.40;99.90
59999;DHT22;45859;51.378;6.736;2023-06-26T14:00:39;25.40;99.90
59999;DHT22;45859;51.378;6.736;2023-06-26T14:03:05;25.20;99.90
59999;DHT22;45859;51.378;6.736;2023-06-26T14:05:36;25.10;99.90
59999;DHT22;45859;51.378;6.736;2023-06-26T14:08:07;25.10;99.90
59999;DHT22;45859;51.378;6.736;2023-06-26T14:10:33;25.20;99.90
59999;DHT22;45859;51.378;6.736;2023-06-26T14:13:00;25.10;99.90
59999;DHT22;45859;51.378;6.736;2023-06-26T14:15:26;25.00;99.90
59999;DHT22;45859;51.378;6.736;2023-06-26T14:17:51;25.00;99.90
59999;DHT22;45859;51.378;6.736;2023-06-26T14:20:18;25.10;99.90
59999;DHT22;45859;51.378;6.736;2023-06-26T14:22:48;25.10;99.90
59999;DHT22;45859;51.378;6.736;2023-06-26T14:25:14;25.10;99.90
59999;DHT22;45859;51.378;6.736;2023-06-26T14:27:40;25.00;99.90
59999;DHT22;45859;51.378;6.736;2023-06-26T14:30:07;24.90;99.90
59999;DHT22;45859;51.378;6.736;2023-06-26T14:32:33;24.90;99.90
59999;DHT22;45859;51.378;6.736;2023-06-26T14:34:59;24.90;99.90
59999;DHT22;45859;51.378;6.736;2023-06-26T14:37:25;24.80;99.90
59999;DHT22;45859;51.378;6.736;2023-06-26T14:39:55;24.80;99.90
59999;DHT22;45859;51.378;6.736;2023-06-26T14:42:21;25.00;99.90
59999;DHT22;45859;51.378;6.736;2023-06-26T14:44:46;25.10;99.90
59999;DHT22;45859;51.378;6.736;2023-06-26T14:47:16;25.00;99.90
59999;DHT22;45859;51.378;6.736;2023-06-26T14:49:42;24.90;99.90
59999;DHT22;45859;51.378;6.736;2023-06-26T14:52:08;24.90;99.90
59999;DHT22;45859;51.378;6.736;2023-06-26T14:54:35;24.90;99.90
59999;DHT22;45859;51.378;6.736;2023-06-26T14:57:05;25.10;99.90
59999;DHT22;45859;51.378;6.736;2023-06-26T14:59:31;25.20;99.90
59999;DHT22;45859;51.378;6.736;2023-06-26T15:01:56;25.20;99.90
59999;DHT22;45859;51.378;6.736;2023-06-26T15:04:22;25.10;99.90
59999;DHT22;45859;51.378;6.736;2023-06-26T15:06:48;25.20;99.90
59999;DHT22;45859;51.378;6.736;2023-06-26T15:09:14;25.30;99.90
59999;DHT22;45859;51.378;6.736;2023-06-26T15:11:40;25.30;99.90
59999;DHT22;45859;51.378;6.736;2023-06-26T15:14:05;25.40;99.90
59999;DHT22;45859;51.378;6.736;2023-06-26T15:16:31;25.10;99.90
59999;DHT22;45859;51.378;6.736;2023-06-26T15:18:57;25.10;99.90
59999;DHT22;45859;51.378;6.736;2023-06-26T15:21:23;25.00;99.90
59999;DHT22;45859;51.378;6.736;2023-06-26T15:23:50;24.80;99.90
59999;DHT22;45859;51.378;6.736;2023-06-26T15:26:16;24.90;99.90
59999;DHT22;45859;51.378;6.736;2023-06-26T15:28:41;24.70;99.90
59999;DHT22;45859;51.378;6.736;2023-06-26T15:31:07;24.70;99.90
59999;DHT22;45859;51.378;6.736;2023-06-26T15:33:33;24.60;99.90
59999;DHT22;45859;51.378;6.736;2023-06-26T15:35:58;24.70;99.90
59999;DHT22;45859;51.378;6.736;2023-06-26T15:38:24;24.60;99.90
59999;DHT22;45859;51.378;6.736;2023-06-26T15:40:50;24.60;99.90
59999;DHT22;45859;51.378;6.736;2023-06-26T15:43:15;24.70;99.90